createdAt,value
2018-11-03T00:00:18.871Z,99.90
2018-11-03T00:02:48.142Z,99.90
2018-11-03T00:05:17.206Z,99.90
2018-11-03T00:07:47.158Z,99.90
2018-11-03T00:10:16.731Z,99.90
2018-11-03T00:12:47.373Z,99.90
2018-11-03T00:15:33.715Z,99.90
2018-11-03T00:18:08.383Z,99.90
2018-11-03T00:20:38.148Z,99.90
2018-11-03T00:23:07.384Z,99.90
2018-11-03T00:25:36.945Z,99.90
2018-11-03T00:28:05.775Z,99.90
2018-11-03T00:30:34.275Z,99.90
2018-11-03T00:33:02.823Z,99.90
2018-11-03T00:35:31.282Z,99.90
2018-11-03T00:38:00.829Z,99.90
2018-11-03T00:40:29.463Z,99.90
2018-11-03T00:42:59.992Z,99.90
2018-11-03T00:45:29.652Z,99.90
2018-11-03T00:47:58.159Z,99.90
2018-11-03T00:50:27.771Z,99.90
2018-11-03T00:52:56.297Z,99.90
2018-11-03T00:55:25.925Z,99.90
2018-11-03T00:57:58.083Z,99.90
2018-11-03T01:00:27.584Z,99.90
2018-11-03T01:03:02.931Z,99.90
2018-11-03T01:05:32.507Z,99.90
2018-11-03T01:08:01.078Z,99.90
2018-11-03T01:10:33.440Z,99.90
2018-11-03T01:13:04.021Z,99.90
2018-11-03T01:15:32.594Z,99.90
2018-11-03T01:18:03.411Z,99.90
2018-11-03T01:20:31.915Z,99.90
2018-11-03T01:23:02.520Z,99.90
2018-11-03T01:25:31.067Z,99.90
2018-11-03T01:28:01.624Z,99.90
2018-11-03T01:30:31.239Z,99.90
2018-11-03T01:33:00.787Z,99.90
2018-11-03T01:35:30.375Z,99.90
2018-11-03T01:38:01.008Z,99.90
2018-11-03T01:40:35.723Z,99.90
2018-11-03T01:43:06.767Z,99.90
2018-11-03T01:45:40.009Z,99.90
2018-11-03T01:48:08.571Z,99.90
2018-11-03T01:50:37.152Z,99.90
2018-11-03T01:53:06.817Z,99.90
2018-11-03T01:55:35.589Z,99.90
2018-11-03T01:58:10.702Z,99.90
2018-11-03T02:00:45.704Z,99.90
2018-11-03T02:03:15.275Z,99.90
2018-11-03T02:05:43.841Z,99.90
2018-11-03T02:08:13.431Z,99.90
2018-11-03T02:10:43.066Z,99.90
2018-11-03T02:13:13.642Z,99.90
2018-11-03T02:15:42.233Z,99.90
2018-11-03T02:18:10.839Z,99.90
2018-11-03T02:20:39.404Z,99.90
2018-11-03T02:23:10.020Z,99.90
2018-11-03T02:25:39.416Z,99.90
2018-11-03T02:28:08.063Z,99.90
2018-11-03T02:30:48.746Z,99.90
2018-11-03T02:33:20.344Z,99.90
2018-11-03T02:35:48.920Z,99.90
2018-11-03T02:38:23.336Z,99.90
2018-11-03T02:40:53.887Z,99.90
2018-11-03T02:43:22.501Z,99.90
2018-11-03T02:45:51.127Z,99.90
2018-11-03T02:48:19.710Z,99.90
2018-11-03T02:50:49.326Z,99.90
2018-11-03T02:53:19.006Z,99.90
2018-11-03T02:55:48.534Z,99.90
2018-11-03T02:58:18.562Z,99.90
2018-11-03T03:00:47.224Z,99.90
2018-11-03T03:03:16.844Z,99.90
2018-11-03T03:05:45.419Z,99.90
2018-11-03T03:08:14.052Z,99.90
2018-11-03T03:10:42.718Z,99.90
2018-11-03T03:13:11.329Z,99.90
2018-11-03T03:15:39.854Z,99.90
2018-11-03T03:18:09.437Z,99.90
2018-11-03T03:20:39.148Z,99.90
2018-11-03T03:23:07.826Z,99.90
2018-11-03T03:25:37.179Z,99.90
2018-11-03T03:28:07.019Z,99.90
2018-11-03T03:30:37.647Z,99.90
2018-11-03T03:33:06.312Z,99.90
2018-11-03T03:35:35.950Z,99.90
2018-11-03T03:38:04.634Z,99.90
2018-11-03T03:40:37.196Z,99.90
2018-11-03T03:43:07.730Z,99.90
2018-11-03T03:45:36.383Z,99.90
2018-11-03T03:48:05.074Z,99.90
2018-11-03T03:50:34.551Z,99.90
2018-11-03T03:53:03.195Z,99.90
2018-11-03T03:55:31.755Z,99.90
2018-11-03T03:58:02.349Z,99.90
2018-11-03T04:00:31.643Z,99.90
2018-11-03T04:03:00.269Z,99.90
2018-11-03T04:05:28.819Z,99.90
2018-11-03T04:07:58.453Z,99.90
2018-11-03T04:10:36.615Z,99.90
2018-11-03T04:13:05.726Z,99.90
2018-11-03T04:15:34.371Z,99.90
2018-11-03T04:18:03.059Z,99.90
2018-11-03T04:20:32.691Z,99.90
2018-11-03T04:23:01.356Z,99.90
2018-11-03T04:25:30.002Z,99.90
2018-11-03T04:27:58.573Z,99.90
2018-11-03T04:30:31.480Z,99.90
2018-11-03T04:33:01.147Z,99.90
2018-11-03T04:35:31.748Z,99.90
2018-11-03T04:38:02.410Z,99.90
2018-11-03T04:40:31.735Z,99.90
2018-11-03T04:43:01.267Z,99.90
2018-11-03T04:45:29.984Z,99.90
2018-11-03T04:48:00.471Z,99.90
2018-11-03T04:50:35.971Z,99.90
2018-11-03T04:53:04.762Z,99.90
2018-11-03T04:55:33.271Z,99.90
2018-11-03T04:58:01.884Z,99.90
2018-11-03T05:00:34.000Z,99.90
2018-11-03T05:03:21.223Z,99.90
2018-11-03T05:05:50.987Z,99.90
2018-11-03T05:08:25.322Z,99.90
2018-11-03T05:10:55.918Z,99.90
2018-11-03T05:13:24.490Z,99.90
2018-11-03T05:15:57.790Z,99.90
2018-11-03T05:18:27.345Z,99.90
2018-11-03T05:20:55.949Z,99.90
2018-11-03T05:23:24.607Z,99.90
2018-11-03T05:25:53.254Z,99.90
2018-11-03T05:28:23.857Z,99.90
2018-11-03T05:30:55.471Z,99.90
2018-11-03T05:33:25.095Z,99.90
2018-11-03T05:35:55.680Z,99.90
2018-11-03T05:38:24.323Z,99.90
2018-11-03T05:40:53.940Z,99.90
2018-11-03T05:43:24.543Z,99.90
2018-11-03T05:45:56.248Z,99.90
2018-11-03T05:48:34.503Z,99.90
2018-11-03T05:51:03.047Z,99.90
2018-11-03T05:53:34.729Z,99.90
2018-11-03T05:56:03.334Z,99.90
2018-11-03T05:58:31.895Z,99.90
2018-11-03T06:01:00.511Z,99.90
2018-11-03T06:03:29.089Z,99.90
2018-11-03T06:05:57.620Z,99.90
2018-11-03T06:08:37.589Z,99.90
2018-11-03T06:11:09.430Z,99.90
2018-11-03T06:13:38.016Z,99.90
2018-11-03T06:16:10.187Z,99.90
2018-11-03T06:18:39.064Z,99.90
2018-11-03T06:21:15.384Z,99.90
2018-11-03T06:23:50.195Z,99.90
2018-11-03T06:26:18.819Z,99.90
2018-11-03T06:28:48.332Z,99.90
2018-11-03T06:31:18.042Z,99.90
2018-11-03T06:33:56.572Z,99.90
2018-11-03T06:36:25.225Z,99.90
2018-11-03T06:38:53.862Z,99.90
2018-11-03T06:41:24.444Z,99.90
2018-11-03T06:43:55.792Z,99.90
2018-11-03T06:46:24.386Z,99.90
2018-11-03T06:48:55.039Z,99.90
2018-11-03T06:51:23.569Z,99.90
2018-11-03T06:53:57.535Z,99.90
2018-11-03T06:56:29.903Z,99.90
2018-11-03T06:59:04.017Z,99.90
2018-11-03T07:01:33.615Z,99.90
2018-11-03T07:04:04.287Z,99.90
2018-11-03T07:06:35.018Z,99.90
2018-11-03T07:09:08.464Z,99.90
2018-11-03T07:11:41.048Z,99.90
2018-11-03T07:14:10.246Z,99.90
2018-11-03T07:16:38.845Z,99.90
2018-11-03T07:19:07.368Z,99.90
2018-11-03T07:21:39.318Z,99.90
2018-11-03T07:24:08.728Z,99.90
2018-11-03T07:26:38.340Z,99.90
2018-11-03T07:29:06.892Z,99.90
2018-11-03T07:31:35.716Z,99.90
2018-11-03T07:34:04.286Z,99.90
2018-11-03T07:36:36.884Z,99.90
2018-11-03T07:39:07.498Z,99.90
2018-11-03T07:41:37.166Z,99.90
2018-11-03T07:44:07.607Z,99.90
2018-11-03T07:46:36.199Z,99.90
2018-11-03T07:49:04.899Z,99.90
2018-11-03T07:51:33.402Z,99.90
2018-11-03T07:54:01.949Z,99.90
2018-11-03T07:56:35.932Z,99.90
2018-11-03T07:59:07.991Z,99.90
2018-11-03T08:01:37.822Z,99.90
2018-11-03T08:04:07.490Z,99.90
2018-11-03T08:06:36.191Z,99.90
2018-11-03T08:09:08.017Z,99.90
2018-11-03T08:11:36.567Z,99.90
2018-11-03T08:14:06.222Z,99.90
2018-11-03T08:16:35.371Z,99.90
2018-11-03T08:19:03.976Z,99.90
2018-11-03T08:21:34.574Z,99.90
2018-11-03T08:24:03.293Z,99.90
2018-11-03T08:26:31.727Z,99.90
2018-11-03T08:29:01.007Z,99.90
2018-11-03T08:31:29.576Z,99.90
2018-11-03T08:33:58.236Z,99.90
2018-11-03T08:36:26.964Z,99.90
2018-11-03T08:38:59.446Z,99.90
2018-11-03T08:41:28.209Z,99.90
2018-11-03T08:43:57.683Z,99.90
2018-11-03T08:46:28.205Z,99.90
2018-11-03T08:48:56.890Z,99.90
2018-11-03T08:51:25.400Z,99.90
2018-11-03T08:53:59.189Z,99.90
2018-11-03T08:56:28.059Z,99.90
2018-11-03T08:58:56.598Z,99.90
2018-11-03T09:01:27.205Z,99.90
2018-11-03T09:03:55.687Z,99.90
2018-11-03T09:06:25.078Z,99.90
2018-11-03T09:08:54.626Z,99.90
2018-11-03T09:11:26.641Z,99.90
2018-11-03T09:13:55.310Z,99.90
2018-11-03T09:16:24.880Z,99.90
2018-11-03T09:18:53.366Z,99.90
2018-11-03T09:21:22.013Z,99.90
2018-11-03T09:23:50.483Z,99.90
2018-11-03T09:26:19.074Z,99.90
2018-11-03T09:28:47.577Z,99.90
2018-11-03T09:31:18.183Z,99.90
2018-11-03T09:33:48.677Z,99.90
2018-11-03T09:36:17.287Z,99.90
2018-11-03T09:38:45.991Z,99.90
2018-11-03T09:41:14.475Z,99.90
2018-11-03T09:43:51.203Z,99.90
2018-11-03T09:46:19.874Z,99.90
2018-11-03T09:48:50.961Z,99.90
2018-11-03T09:51:21.539Z,99.90
2018-11-03T09:53:56.156Z,99.90
2018-11-03T09:56:24.809Z,99.90
2018-11-03T09:58:53.523Z,99.90
2018-11-03T10:01:22.107Z,99.90
2018-11-03T10:03:50.731Z,99.90
2018-11-03T10:06:20.370Z,99.90
2018-11-03T10:08:48.995Z,99.90
2018-11-03T10:11:17.548Z,99.90
2018-11-03T10:13:47.182Z,99.90
2018-11-03T10:16:15.841Z,99.90
2018-11-03T10:18:44.580Z,99.90
2018-11-03T10:21:14.204Z,99.90
2018-11-03T10:23:42.779Z,99.90
2018-11-03T10:26:13.481Z,99.90
2018-11-03T10:28:45.363Z,99.90
2018-11-03T10:31:14.027Z,99.90
2018-11-03T10:33:44.714Z,99.90
2018-11-03T10:36:13.303Z,99.90
2018-11-03T10:38:44.971Z,99.90
2018-11-03T10:41:14.611Z,99.90
2018-11-03T10:43:48.829Z,99.90
2018-11-03T10:46:21.677Z,99.90
2018-11-03T10:48:53.891Z,99.90
2018-11-03T10:51:23.565Z,99.90
2018-11-03T10:53:54.258Z,99.90
2018-11-03T10:56:22.880Z,99.90
2018-11-03T10:58:51.554Z,99.90
2018-11-03T11:01:25.390Z,99.90
2018-11-03T11:03:59.291Z,99.90
2018-11-03T11:06:36.391Z,99.90
2018-11-03T11:09:12.372Z,99.90
2018-11-03T11:11:51.965Z,99.90
2018-11-03T11:14:21.593Z,99.90
2018-11-03T11:16:50.212Z,99.90
2018-11-03T11:19:18.732Z,99.90
2018-11-03T11:21:47.394Z,99.90
2018-11-03T11:24:16.123Z,99.90
2018-11-03T11:26:45.530Z,99.90
2018-11-03T11:29:14.088Z,99.90
2018-11-03T11:31:42.687Z,99.90
2018-11-03T11:34:11.263Z,99.90
2018-11-03T11:36:39.964Z,99.90
2018-11-03T11:39:10.592Z,99.90
2018-11-03T11:41:39.249Z,99.90
2018-11-03T11:44:07.796Z,99.90
2018-11-03T11:46:36.923Z,99.90
2018-11-03T11:49:05.575Z,99.90
2018-11-03T11:51:34.202Z,99.90
2018-11-03T11:54:02.793Z,99.90
2018-11-03T11:56:32.414Z,97.60
2018-11-03T11:59:01.967Z,99.10
2018-11-03T12:01:30.518Z,99.90
2018-11-03T12:03:59.119Z,99.90
2018-11-03T12:06:27.720Z,99.90
2018-11-03T12:08:56.368Z,99.90
2018-11-03T12:11:30.403Z,99.90
2018-11-03T12:13:59.023Z,99.90
2018-11-03T12:16:27.622Z,99.80
2018-11-03T12:18:56.191Z,99.90
2018-11-03T12:21:24.768Z,99.90
2018-11-03T12:23:53.251Z,99.90
2018-11-03T12:26:25.318Z,99.90
2018-11-03T12:28:53.860Z,99.90
2018-11-03T12:31:23.587Z,98.60
2018-11-03T12:33:55.754Z,97.00
2018-11-03T12:36:27.875Z,95.70
2018-11-03T12:38:56.415Z,91.70
2018-11-03T12:41:26.670Z,83.90
2018-11-03T12:43:56.228Z,81.10
2018-11-03T12:46:28.061Z,83.00
2018-11-03T12:48:58.308Z,82.70
2018-11-03T12:51:32.750Z,82.80
2018-11-03T12:54:04.056Z,78.10
2018-11-03T12:56:34.597Z,72.10
2018-11-03T12:59:05.562Z,66.90
2018-11-03T13:01:34.119Z,66.10
2018-11-03T13:04:08.529Z,67.30
2018-11-03T13:06:38.582Z,65.50
2018-11-03T13:09:10.263Z,65.20
2018-11-03T13:11:38.763Z,62.90
2018-11-03T13:14:11.669Z,61.00
2018-11-03T13:16:41.286Z,61.60
2018-11-03T13:19:16.378Z,58.60
2018-11-03T13:21:44.954Z,60.60
2018-11-03T13:24:14.541Z,57.70
2018-11-03T13:26:46.428Z,54.90
2018-11-03T13:29:14.987Z,54.80
2018-11-03T13:31:48.252Z,53.60
2018-11-03T13:34:26.220Z,52.30
2018-11-03T13:36:54.762Z,50.70
2018-11-03T13:39:23.490Z,51.80
2018-11-03T13:41:52.096Z,51.20
2018-11-03T13:44:27.217Z,50.70
2018-11-03T13:46:57.790Z,52.50
2018-11-03T13:49:28.424Z,53.20
2018-11-03T13:51:57.988Z,51.60
2018-11-03T13:54:26.552Z,51.70
2018-11-03T13:56:56.213Z,52.70
2018-11-03T13:59:24.771Z,55.70
2018-11-03T14:01:53.549Z,56.40
2018-11-03T14:04:22.146Z,55.80
2018-11-03T14:06:50.851Z,55.60
2018-11-03T14:09:29.992Z,53.80
2018-11-03T14:12:04.576Z,52.30
2018-11-03T14:14:33.119Z,52.70
2018-11-03T14:17:01.868Z,51.90
2018-11-03T14:19:30.496Z,51.30
2018-11-03T14:21:59.002Z,51.40
2018-11-03T14:24:29.637Z,52.20
2018-11-03T14:26:59.203Z,52.20
2018-11-03T14:29:27.768Z,53.40
2018-11-03T14:31:56.403Z,53.80
2018-11-03T14:34:31.486Z,53.70
2018-11-03T14:37:00.023Z,54.50
2018-11-03T14:39:31.705Z,54.90
2018-11-03T14:42:00.310Z,57.00
2018-11-03T14:44:28.933Z,59.10
2018-11-03T14:46:57.529Z,62.40
2018-11-03T14:49:27.092Z,65.60
2018-11-03T14:51:55.612Z,70.90
2018-11-03T14:54:25.292Z,76.70
2018-11-03T14:56:54.941Z,84.10
2018-11-03T14:59:27.940Z,93.60
2018-11-03T15:02:08.741Z,99.90
2018-11-03T15:04:37.368Z,99.90
2018-11-03T15:07:07.169Z,99.90
2018-11-03T15:09:36.201Z,99.90
2018-11-03T15:12:06.516Z,99.90
2018-11-03T15:14:35.595Z,99.90
2018-11-03T15:17:06.420Z,99.90
2018-11-03T15:19:34.963Z,99.90
2018-11-03T15:22:05.159Z,99.90
2018-11-03T15:24:36.810Z,99.90
2018-11-03T15:27:09.091Z,99.90
2018-11-03T15:29:37.624Z,99.90
2018-11-03T15:32:06.233Z,99.90
2018-11-03T15:34:35.778Z,99.90
2018-11-03T15:37:04.393Z,99.90
2018-11-03T15:39:33.955Z,99.90
2018-11-03T15:42:02.575Z,99.90
2018-11-03T15:44:31.135Z,99.90
2018-11-03T15:47:00.718Z,99.90
2018-11-03T15:49:31.352Z,99.90
2018-11-03T15:52:04.131Z,99.90
2018-11-03T15:54:32.702Z,99.90
2018-11-03T15:57:01.328Z,99.90
2018-11-03T15:59:30.935Z,99.90
2018-11-03T16:01:59.582Z,99.90
2018-11-03T16:04:28.116Z,99.90
2018-11-03T16:06:56.748Z,99.90
2018-11-03T16:09:30.835Z,99.90
2018-11-03T16:11:59.575Z,99.90
2018-11-03T16:14:29.051Z,99.90
2018-11-03T16:16:59.677Z,99.90
2018-11-03T16:19:29.284Z,99.90
2018-11-03T16:21:57.818Z,99.90
2018-11-03T16:24:27.331Z,99.90
2018-11-03T16:26:57.880Z,99.90
2018-11-03T16:29:27.547Z,99.90
2018-11-03T16:31:57.179Z,99.90
2018-11-03T16:34:25.827Z,99.90
2018-11-03T16:36:54.450Z,99.90
2018-11-03T16:39:23.035Z,99.90
2018-11-03T16:41:53.828Z,99.90
2018-11-03T16:44:23.338Z,99.90
2018-11-03T16:46:52.923Z,99.90
2018-11-03T16:49:25.777Z,99.90
2018-11-03T16:51:56.461Z,99.90
2018-11-03T16:54:27.969Z,99.90
2018-11-03T16:56:56.524Z,99.90
2018-11-03T16:59:26.278Z,99.90
2018-11-03T17:01:55.923Z,99.90
2018-11-03T17:04:24.571Z,99.90
2018-11-03T17:06:53.398Z,99.90
2018-11-03T17:09:21.918Z,99.90
2018-11-03T17:11:52.465Z,99.90
2018-11-03T17:14:21.035Z,99.90
2018-11-03T17:16:54.518Z,99.90
2018-11-03T17:19:23.065Z,99.90
2018-11-03T17:21:53.725Z,99.90
2018-11-03T17:24:22.310Z,99.90
2018-11-03T17:26:51.864Z,99.90
2018-11-03T17:29:22.516Z,99.90
2018-11-03T17:31:51.218Z,99.90
2018-11-03T17:34:19.727Z,99.90
2018-11-03T17:36:51.972Z,99.90
2018-11-03T17:39:22.512Z,99.90
2018-11-03T17:41:51.160Z,99.90
2018-11-03T17:44:19.645Z,99.90
2018-11-03T17:46:48.265Z,99.90
2018-11-03T17:49:17.800Z,99.90
2018-11-03T17:51:48.347Z,99.90
2018-11-03T17:54:17.130Z,99.90
2018-11-03T17:56:45.747Z,99.90
2018-11-03T17:59:14.338Z,99.90
2018-11-03T18:01:44.008Z,99.90
2018-11-03T18:04:12.987Z,99.90
2018-11-03T18:06:41.631Z,99.90
2018-11-03T18:09:10.652Z,99.90
2018-11-03T18:11:39.199Z,99.90
2018-11-03T18:14:07.870Z,99.90
2018-11-03T18:16:36.487Z,99.90
2018-11-03T18:19:06.104Z,99.90
2018-11-03T18:21:35.837Z,99.90
2018-11-03T18:24:04.580Z,99.90
2018-11-03T18:26:33.224Z,99.90
2018-11-03T18:29:03.873Z,99.90
2018-11-03T18:31:32.471Z,99.90
2018-11-03T18:34:04.047Z,99.90
2018-11-03T18:36:35.047Z,99.90
2018-11-03T18:39:04.409Z,99.90
2018-11-03T18:41:32.976Z,99.90
2018-11-03T18:44:03.520Z,99.90
2018-11-03T18:46:32.244Z,99.90
2018-11-03T18:49:00.821Z,99.90
2018-11-03T18:51:33.716Z,99.90
2018-11-03T18:54:02.275Z,99.90
2018-11-03T18:56:32.858Z,99.90
2018-11-03T18:59:06.303Z,99.90
2018-11-03T19:01:34.851Z,99.90
2018-11-03T19:04:03.431Z,99.90
2018-11-03T19:06:31.970Z,99.90
2018-11-03T19:09:01.620Z,99.90
2018-11-03T19:11:35.343Z,99.90
2018-11-03T19:14:05.125Z,99.90
2018-11-03T19:16:33.864Z,99.90
2018-11-03T19:19:02.460Z,99.90
2018-11-03T19:21:32.023Z,99.90
2018-11-03T19:24:00.744Z,99.90
2018-11-03T19:26:29.416Z,99.90
2018-11-03T19:28:57.906Z,99.90
2018-11-03T19:31:30.835Z,99.90
2018-11-03T19:33:59.459Z,99.90
2018-11-03T19:36:30.092Z,99.90
2018-11-03T19:38:59.724Z,99.90
2018-11-03T19:41:29.382Z,99.90
2018-11-03T19:43:58.472Z,99.90
2018-11-03T19:46:27.093Z,99.90
2018-11-03T19:48:56.728Z,99.90
2018-11-03T19:51:25.332Z,99.90
2018-11-03T19:53:54.024Z,99.90
2018-11-03T19:56:23.692Z,99.90
2018-11-03T19:58:54.877Z,99.90
2018-11-03T20:01:25.587Z,99.90
2018-11-03T20:03:54.132Z,99.90
2018-11-03T20:06:22.732Z,99.90
2018-11-03T20:08:52.371Z,99.90
2018-11-03T20:11:20.987Z,99.90
2018-11-03T20:13:49.557Z,99.90
2018-11-03T20:16:18.152Z,99.90
2018-11-03T20:18:48.671Z,99.90
2018-11-03T20:21:17.290Z,99.90
2018-11-03T20:23:47.866Z,99.90
2018-11-03T20:26:16.511Z,99.90
2018-11-03T20:28:45.140Z,99.90
2018-11-03T20:31:14.742Z,99.90
2018-11-03T20:33:43.356Z,99.90
2018-11-03T20:36:14.004Z,99.90
2018-11-03T20:38:42.588Z,99.90
2018-11-03T20:41:11.232Z,99.90
2018-11-03T20:43:39.820Z,99.90
2018-11-03T20:46:09.392Z,99.90
2018-11-03T20:48:40.466Z,99.90
2018-11-03T20:51:11.071Z,99.90
2018-11-03T20:53:40.236Z,99.90
2018-11-03T20:56:09.158Z,99.90
2018-11-03T20:58:39.018Z,99.90
2018-11-03T21:01:08.672Z,99.90
2018-11-03T21:03:38.286Z,99.90
2018-11-03T21:06:07.958Z,99.90
2018-11-03T21:08:38.736Z,99.90
2018-11-03T21:11:08.372Z,99.90
2018-11-03T21:13:37.026Z,99.90
2018-11-03T21:16:07.587Z,99.90
2018-11-03T21:18:36.240Z,99.90
2018-11-03T21:21:04.866Z,99.90
2018-11-03T21:23:34.478Z,99.90
2018-11-03T21:26:03.060Z,99.90
2018-11-03T21:28:31.596Z,99.90
2018-11-03T21:31:00.172Z,99.90
2018-11-03T21:33:30.808Z,99.90
2018-11-03T21:35:59.306Z,99.90
2018-11-03T21:38:28.013Z,99.90
2018-11-03T21:40:56.804Z,99.90
2018-11-03T21:43:25.358Z,99.90
2018-11-03T21:45:53.929Z,99.90
2018-11-03T21:48:22.537Z,99.90
2018-11-03T21:50:53.156Z,99.90
2018-11-03T21:53:21.779Z,99.90
2018-11-03T21:55:50.384Z,99.90
2018-11-03T21:58:19.974Z,99.90
2018-11-03T22:00:48.576Z,99.90
2018-11-03T22:03:19.277Z,99.90
2018-11-03T22:05:49.859Z,99.90
2018-11-03T22:08:18.445Z,99.90
2018-11-03T22:10:47.183Z,99.90
2018-11-03T22:13:21.503Z,99.90
2018-11-03T22:15:50.168Z,99.90
2018-11-03T22:18:20.614Z,99.90
2018-11-03T22:20:49.169Z,99.90
2018-11-03T22:23:17.775Z,99.90
2018-11-03T22:25:46.363Z,99.90
2018-11-03T22:28:14.883Z,99.90
2018-11-03T22:30:44.395Z,99.90
2018-11-03T22:33:13.958Z,99.90
2018-11-03T22:35:46.936Z,99.90
2018-11-03T22:38:17.507Z,99.90
2018-11-03T22:40:47.155Z,99.90
2018-11-03T22:43:22.660Z,99.90
2018-11-03T22:45:51.229Z,99.90
2018-11-03T22:48:23.046Z,99.90
2018-11-03T22:50:53.699Z,99.90
2018-11-03T22:53:22.307Z,99.90
2018-11-03T22:55:51.879Z,99.90
2018-11-03T22:58:21.431Z,99.90
2018-11-03T23:00:56.632Z,99.90
2018-11-03T23:03:25.897Z,99.90
2018-11-03T23:05:55.755Z,99.90
2018-11-03T23:08:24.400Z,99.90
2018-11-03T23:10:54.046Z,99.90
2018-11-03T23:13:24.749Z,99.90
2018-11-03T23:15:53.201Z,99.90
2018-11-03T23:18:22.768Z,99.90
2018-11-03T23:20:51.334Z,99.90
2018-11-03T23:23:19.834Z,99.90
2018-11-03T23:25:48.317Z,99.90
2018-11-03T23:28:20.592Z,99.90
2018-11-03T23:30:49.108Z,99.90
2018-11-03T23:33:17.619Z,99.90
2018-11-03T23:35:47.103Z,99.90
2018-11-03T23:38:15.765Z,99.90
2018-11-03T23:40:44.424Z,99.90
2018-11-03T23:43:13.030Z,99.90
2018-11-03T23:45:41.571Z,99.90
2018-11-03T23:48:10.171Z,99.90
2018-11-03T23:50:39.759Z,99.90
2018-11-03T23:53:08.375Z,99.90
2018-11-03T23:55:36.940Z,99.90
2018-11-03T23:58:07.495Z,99.90
